createdAt,value
2018-06-05T00:01:03.724Z,0
2018-06-05T00:02:08.307Z,0
2018-06-05T00:03:13.183Z,0
2018-06-05T00:04:19.335Z,0
2018-06-05T00:05:24.494Z,0
2018-06-05T00:06:30.338Z,0
2018-06-05T00:07:34.935Z,0
2018-06-05T00:08:40.366Z,0
2018-06-05T00:09:45.649Z,0
2018-06-05T00:10:50.525Z,0
2018-06-05T00:11:55.381Z,0
2018-06-05T00:13:00.620Z,0
2018-06-05T00:14:06.055Z,0
2018-06-05T00:15:11.486Z,0
2018-06-05T00:16:17.039Z,0
2018-06-05T00:17:22.487Z,0
2018-06-05T00:18:28.328Z,0
2018-06-05T00:19:33.761Z,0
2018-06-05T00:20:38.925Z,0
2018-06-05T00:21:44.584Z,0
2018-06-05T00:22:50.018Z,0
2018-06-05T00:23:55.460Z,0
2018-06-05T00:25:00.872Z,0
2018-06-05T00:26:05.741Z,0
2018-06-05T00:27:10.921Z,0
2018-06-05T00:28:16.720Z,0
2018-06-05T00:29:22.135Z,0
2018-06-05T00:30:27.938Z,0
2018-06-05T00:31:33.371Z,0
2018-06-05T00:32:38.230Z,0
2018-06-05T00:33:43.984Z,0
2018-06-05T00:34:49.430Z,0
2018-06-05T00:35:54.572Z,0
2018-06-05T00:36:59.996Z,0
2018-06-05T00:38:05.427Z,0
2018-06-05T00:39:10.595Z,0
2018-06-05T00:40:15.807Z,0
2018-06-05T00:41:21.235Z,0
2018-06-05T00:42:26.423Z,0
2018-06-05T00:43:31.590Z,0
2018-06-05T00:44:37.034Z,0
2018-06-05T00:45:42.312Z,0
2018-06-05T00:46:47.457Z,0
2018-06-05T00:47:52.631Z,0
2018-06-05T00:48:58.149Z,0
2018-06-05T00:50:03.296Z,0
2018-06-05T00:51:07.616Z,0
2018-06-05T00:52:12.455Z,0
2018-06-05T00:53:17.890Z,0
2018-06-05T00:54:23.321Z,0
2018-06-05T00:55:28.922Z,0
2018-06-05T00:56:34.107Z,0
2018-06-05T00:57:39.801Z,0
2018-06-05T00:58:45.235Z,0
2018-06-05T00:59:50.393Z,0
2018-06-05T01:00:55.676Z,0
2018-06-05T01:02:01.111Z,0
2018-06-05T01:03:05.979Z,0
2018-06-05T01:04:11.124Z,0
2018-06-05T01:05:15.429Z,0
2018-06-05T01:06:19.751Z,0
2018-06-05T01:07:24.588Z,0
2018-06-05T01:08:29.748Z,0
2018-06-05T01:09:35.664Z,0
2018-06-05T01:10:40.532Z,0
2018-06-05T01:11:45.962Z,0
2018-06-05T01:12:51.101Z,0
2018-06-05T01:13:56.532Z,0
2018-06-05T01:15:01.413Z,0
2018-06-05T01:16:06.848Z,0
2018-06-05T01:17:11.724Z,0
2018-06-05T01:18:17.213Z,0
2018-06-05T01:19:22.076Z,0
2018-06-05T01:20:27.507Z,0
2018-06-05T01:21:32.648Z,0
2018-06-05T01:22:38.078Z,0
2018-06-05T01:23:43.512Z,0
2018-06-05T01:24:49.358Z,0
2018-06-05T01:25:54.513Z,0
2018-06-05T01:26:59.948Z,0
2018-06-05T01:28:05.375Z,0
2018-06-05T01:29:09.970Z,0
2018-06-05T01:30:15.415Z,0
2018-06-05T01:31:21.125Z,0
2018-06-05T01:32:26.265Z,0
2018-06-05T01:33:31.958Z,0
2018-06-05T01:34:36.546Z,0
2018-06-05T01:35:41.120Z,0
2018-06-05T01:36:46.807Z,0
2018-06-05T01:37:51.679Z,0
2018-06-05T01:38:57.111Z,0
2018-06-05T01:40:01.950Z,0
2018-06-05T01:41:06.542Z,0
2018-06-05T01:42:11.710Z,0
2018-06-05T01:43:16.824Z,0
2018-06-05T01:44:21.993Z,0
2018-06-05T01:45:42.320Z,0
2018-06-05T01:46:47.752Z,0
2018-06-05T01:47:52.639Z,0
2018-06-05T01:48:58.503Z,0
2018-06-05T01:50:03.938Z,0
2018-06-05T01:51:09.385Z,0
2018-06-05T01:52:15.064Z,0
2018-06-05T01:53:19.647Z,0
2018-06-05T01:54:24.526Z,0
2018-06-05T01:55:29.774Z,0
2018-06-05T01:56:35.220Z,0
2018-06-05T01:57:40.827Z,0
2018-06-05T01:58:45.707Z,0
2018-06-05T01:59:50.592Z,0
2018-06-05T02:00:55.431Z,0
2018-06-05T02:02:00.314Z,0
2018-06-05T02:03:05.207Z,0
2018-06-05T02:04:10.606Z,0
2018-06-05T02:05:16.043Z,0
2018-06-05T02:06:21.478Z,0
2018-06-05T02:07:42.009Z,0
2018-06-05T02:08:46.617Z,0
2018-06-05T02:09:52.024Z,0
2018-06-05T02:10:57.180Z,0
2018-06-05T02:12:02.057Z,0
2018-06-05T02:13:07.175Z,0
2018-06-05T02:14:12.611Z,0
2018-06-05T02:15:17.777Z,0
2018-06-05T02:16:23.191Z,0
2018-06-05T02:17:28.629Z,0
2018-06-05T02:18:34.467Z,0
2018-06-05T02:19:39.904Z,0
2018-06-05T02:20:45.351Z,0
2018-06-05T02:21:50.571Z,0
2018-06-05T02:22:55.726Z,0
2018-06-05T02:24:00.874Z,0
2018-06-05T02:25:06.003Z,0
2018-06-05T02:26:11.440Z,0
2018-06-05T02:27:16.594Z,0
2018-06-05T02:28:22.097Z,0
2018-06-05T02:29:26.687Z,0
2018-06-05T02:30:32.478Z,0
2018-06-05T02:31:37.632Z,0
2018-06-05T02:32:42.497Z,0
2018-06-05T02:33:47.944Z,0
2018-06-05T02:34:53.405Z,0
2018-06-05T02:35:58.559Z,0
2018-06-05T02:37:03.965Z,0
2018-06-05T02:38:09.119Z,0
2018-06-05T02:39:14.312Z,0
2018-06-05T02:40:19.717Z,0
2018-06-05T02:41:24.345Z,0
2018-06-05T02:42:29.205Z,0
2018-06-05T02:43:34.379Z,0
2018-06-05T02:44:39.540Z,0
2018-06-05T02:45:44.668Z,0
2018-06-05T02:46:49.848Z,0
2018-06-05T02:47:55.004Z,0
2018-06-05T02:49:00.131Z,0
2018-06-05T02:50:05.576Z,0
2018-06-05T02:51:11.014Z,0
2018-06-05T02:52:16.422Z,0
2018-06-05T02:53:21.583Z,0
2018-06-05T02:54:42.034Z,0
2018-06-05T02:55:46.612Z,0
2018-06-05T02:56:50.909Z,0
2018-06-05T02:57:56.601Z,0
2018-06-05T02:59:00.642Z,0
2018-06-05T03:00:05.815Z,0
2018-06-05T03:01:11.317Z,0
2018-06-05T03:02:15.905Z,0
2018-06-05T03:03:21.338Z,0
2018-06-05T03:04:41.766Z,0
2018-06-05T03:05:46.908Z,0
2018-06-05T03:06:52.591Z,0
2018-06-05T03:07:58.053Z,0
2018-06-05T03:09:02.650Z,0
2018-06-05T03:10:08.048Z,0
2018-06-05T03:11:13.492Z,0
2018-06-05T03:12:18.656Z,0
2018-06-05T03:15:07.733Z,0
2018-06-05T03:16:13.293Z,0
2018-06-05T03:17:18.755Z,0
2018-06-05T03:18:23.902Z,0
2018-06-05T03:19:29.311Z,0
2018-06-05T03:20:34.202Z,0
2018-06-05T03:21:39.596Z,0
2018-06-05T03:22:44.463Z,0
2018-06-05T03:23:49.816Z,0
2018-06-05T03:24:55.417Z,0
2018-06-05T03:26:00.882Z,0
2018-06-05T03:27:05.480Z,0
2018-06-05T03:28:11.030Z,0
2018-06-05T03:29:16.482Z,0
2018-06-05T03:30:21.919Z,0
2018-06-05T03:31:27.805Z,0
2018-06-05T03:32:32.959Z,0
2018-06-05T03:33:38.640Z,0
2018-06-05T03:34:43.511Z,0
2018-06-05T03:35:48.668Z,0
2018-06-05T03:36:53.959Z,0
2018-06-05T03:37:59.399Z,0
2018-06-05T03:39:04.287Z,0
2018-06-05T03:40:09.707Z,0
2018-06-05T03:41:15.141Z,0
2018-06-05T03:42:20.008Z,0
2018-06-05T03:43:25.616Z,0
2018-06-05T03:44:30.483Z,0
2018-06-05T03:45:36.229Z,0
2018-06-05T03:46:41.675Z,0
2018-06-05T03:47:46.818Z,0
2018-06-05T03:48:52.446Z,0
2018-06-05T03:49:57.600Z,0
2018-06-05T03:51:15.522Z,0
2018-06-05T03:52:21.031Z,0
2018-06-05T03:53:26.463Z,0
2018-06-05T03:54:32.345Z,0
2018-06-05T03:55:37.794Z,0
2018-06-05T03:56:42.655Z,0
2018-06-05T03:57:48.212Z,0
2018-06-05T03:58:53.386Z,0
2018-06-05T03:59:58.243Z,0
2018-06-05T04:01:03.125Z,0
2018-06-05T04:02:08.296Z,0
2018-06-05T04:03:13.747Z,0
2018-06-05T04:04:19.024Z,0
2018-06-05T04:05:24.234Z,0
2018-06-05T04:06:29.988Z,0
2018-06-05T04:07:35.417Z,0
2018-06-05T04:08:40.582Z,0
2018-06-05T04:09:45.995Z,0
2018-06-05T04:10:51.448Z,0
2018-06-05T04:11:56.622Z,0
2018-06-05T04:13:02.011Z,0
2018-06-05T04:14:06.593Z,0
2018-06-05T04:15:11.177Z,0
2018-06-05T04:16:16.677Z,0
2018-06-05T04:17:21.818Z,0
2018-06-05T04:18:41.744Z,0
2018-06-05T04:19:47.178Z,0
2018-06-05T04:20:52.621Z,0
2018-06-05T04:21:58.555Z,0
2018-06-05T04:23:03.412Z,0
2018-06-05T04:24:08.565Z,0
2018-06-05T04:25:13.736Z,0
2018-06-05T04:26:19.197Z,0
2018-06-05T04:27:24.394Z,0
2018-06-05T04:28:44.547Z,0
2018-06-05T04:29:49.979Z,0
2018-06-05T04:30:54.645Z,0
2018-06-05T04:31:59.796Z,0
2018-06-05T04:33:04.376Z,0
2018-06-05T04:34:10.071Z,0
2018-06-05T04:35:15.218Z,0
2018-06-05T04:36:20.385Z,0
2018-06-05T04:37:25.545Z,0
2018-06-05T04:38:30.991Z,0
2018-06-05T04:39:36.303Z,0
2018-06-05T04:40:41.752Z,0
2018-06-05T04:41:47.185Z,0
2018-06-05T04:42:52.411Z,0
2018-06-05T04:43:57.846Z,0
2018-06-05T04:45:02.719Z,0
2018-06-05T04:46:07.949Z,0
2018-06-05T04:47:13.380Z,0
2018-06-05T04:48:18.272Z,0
2018-06-05T04:49:23.667Z,0
2018-06-05T04:50:27.971Z,0
2018-06-05T04:51:33.574Z,0
2018-06-05T04:52:38.163Z,0
2018-06-05T04:53:43.339Z,0
2018-06-05T04:54:48.742Z,0
2018-06-05T04:55:54.187Z,0
2018-06-05T04:56:59.064Z,0
2018-06-05T04:58:04.745Z,0
2018-06-05T04:59:09.900Z,0
2018-06-05T05:00:15.065Z,0
2018-06-05T05:01:20.852Z,0
2018-06-05T05:02:25.725Z,0
2018-06-05T05:03:31.348Z,0
2018-06-05T05:04:36.518Z,0
2018-06-05T05:05:41.684Z,0
2018-06-05T05:06:47.144Z,6
2018-06-05T05:07:52.336Z,6
2018-06-05T05:08:57.482Z,6
2018-06-05T05:10:02.620Z,6
2018-06-05T05:11:07.764Z,6
2018-06-05T05:12:12.356Z,6
2018-06-05T05:13:17.191Z,6
2018-06-05T05:14:22.340Z,6
2018-06-05T05:15:28.021Z,6
2018-06-05T05:16:33.459Z,6
2018-06-05T05:17:38.328Z,6
2018-06-05T05:18:44.160Z,6
2018-06-05T05:19:49.591Z,6
2018-06-05T05:20:54.457Z,6
2018-06-05T05:21:59.868Z,6
2018-06-05T05:23:05.315Z,6
2018-06-05T05:24:10.471Z,6
2018-06-05T05:25:15.709Z,6
2018-06-05T05:26:20.592Z,6
2018-06-05T05:27:40.654Z,6
2018-06-05T05:28:45.525Z,6
2018-06-05T05:29:50.975Z,6
2018-06-05T05:30:57.005Z,6
2018-06-05T05:32:02.452Z,6
2018-06-05T05:33:07.328Z,6
2018-06-05T05:34:12.730Z,6
2018-06-05T05:35:18.159Z,6
2018-06-05T05:36:23.596Z,6
2018-06-05T05:37:29.198Z,6
2018-06-05T05:38:34.628Z,6
2018-06-05T05:39:39.493Z,6
2018-06-05T05:40:44.936Z,6
2018-06-05T05:41:50.368Z,6
2018-06-05T05:42:55.697Z,6
2018-06-05T05:44:00.552Z,6
2018-06-05T05:45:05.429Z,24
2018-06-05T05:46:10.560Z,24
2018-06-05T05:47:15.727Z,24
2018-06-05T05:48:20.882Z,24
2018-06-05T05:49:26.006Z,24
2018-06-05T05:50:30.622Z,24
2018-06-05T05:51:36.409Z,24
2018-06-05T05:52:41.288Z,24
2018-06-05T05:53:46.721Z,24
2018-06-05T05:54:52.649Z,24
2018-06-05T05:55:58.264Z,24
2018-06-05T05:57:02.309Z,24
2018-06-05T05:58:07.693Z,24
2018-06-05T05:59:12.845Z,24
2018-06-05T06:00:18.276Z,24
2018-06-05T06:01:24.306Z,24
2018-06-05T06:02:29.679Z,24
2018-06-05T06:03:35.205Z,24
2018-06-05T06:04:39.804Z,24
2018-06-05T06:05:45.241Z,24
2018-06-05T06:06:51.209Z,24
2018-06-05T06:07:56.650Z,24
2018-06-05T06:09:01.804Z,24
2018-06-05T06:10:06.919Z,24
2018-06-05T06:11:11.805Z,24
2018-06-05T06:12:17.130Z,24
2018-06-05T06:13:23.142Z,24
2018-06-05T06:14:28.006Z,24
2018-06-05T06:15:33.400Z,24
2018-06-05T06:16:38.836Z,24
2018-06-05T06:17:43.435Z,24
2018-06-05T06:18:48.941Z,24
2018-06-05T06:19:54.370Z,24
2018-06-05T06:20:59.516Z,40
2018-06-05T06:22:04.978Z,40
2018-06-05T06:23:10.417Z,40
2018-06-05T06:24:15.296Z,40
2018-06-05T06:25:20.503Z,40
2018-06-05T06:26:25.662Z,40
2018-06-05T06:27:31.448Z,24
2018-06-05T06:28:36.600Z,24
2018-06-05T06:29:41.482Z,24
2018-06-05T06:30:46.598Z,24
2018-06-05T06:31:51.759Z,24
2018-06-05T06:32:56.354Z,222
2018-06-05T06:34:02.085Z,222
2018-06-05T06:35:06.386Z,222
2018-06-05T06:36:11.538Z,207
2018-06-05T06:37:17.223Z,222
2018-06-05T06:38:22.097Z,207
2018-06-05T06:39:28.075Z,222
2018-06-05T06:40:32.655Z,222
2018-06-05T06:41:38.087Z,222
2018-06-05T06:42:43.778Z,222
2018-06-05T06:43:48.934Z,222
2018-06-05T06:44:54.390Z,207
2018-06-05T06:45:59.898Z,207
2018-06-05T06:47:05.360Z,222
2018-06-05T06:48:10.788Z,222
2018-06-05T06:49:16.032Z,207
2018-06-05T06:50:20.606Z,222
2018-06-05T06:51:40.668Z,222
2018-06-05T06:52:45.522Z,222
2018-06-05T06:53:50.399Z,207
2018-06-05T06:54:56.011Z,207
2018-06-05T06:56:01.170Z,207
2018-06-05T06:57:05.749Z,222
2018-06-05T06:58:11.162Z,222
2018-06-05T06:59:16.593Z,222
2018-06-05T07:00:21.183Z,222
2018-06-05T07:01:26.584Z,222
2018-06-05T07:02:32.035Z,222
2018-06-05T07:03:37.826Z,222
2018-06-05T07:04:42.509Z,222
2018-06-05T07:05:47.965Z,237
2018-06-05T07:06:53.469Z,237
2018-06-05T07:07:58.640Z,222
2018-06-05T07:09:03.232Z,222
2018-06-05T07:10:08.642Z,222
2018-06-05T07:11:13.520Z,222
2018-06-05T07:12:19.024Z,222
2018-06-05T07:13:24.522Z,222
2018-06-05T07:14:29.953Z,216
2018-06-05T07:15:35.668Z,222
2018-06-05T07:16:40.831Z,216
2018-06-05T07:17:46.267Z,216
2018-06-05T07:18:51.953Z,216
2018-06-05T07:19:57.122Z,216
2018-06-05T07:21:02.266Z,191
2018-06-05T07:22:06.829Z,216
2018-06-05T07:23:11.981Z,216
2018-06-05T07:24:16.342Z,201
2018-06-05T07:25:21.568Z,232
2018-06-05T07:26:26.934Z,232
2018-06-05T07:27:32.336Z,191
2018-06-05T07:28:36.916Z,232
2018-06-05T07:29:42.073Z,232
2018-06-05T07:30:47.222Z,232
2018-06-05T07:31:52.391Z,216
2018-06-05T07:32:58.029Z,232
2018-06-05T07:34:03.721Z,232
2018-06-05T07:35:09.169Z,247
2018-06-05T07:36:14.599Z,216
2018-06-05T07:37:20.285Z,216
2018-06-05T07:38:26.047Z,232
2018-06-05T07:39:31.560Z,232
2018-06-05T07:40:36.725Z,232
2018-06-05T07:41:41.329Z,232
2018-06-05T07:42:46.887Z,216
2018-06-05T07:43:51.776Z,216
2018-06-05T07:44:56.932Z,232
2018-06-05T07:46:01.624Z,216
2018-06-05T07:47:06.792Z,216
2018-06-05T07:48:11.972Z,216
2018-06-05T07:49:17.511Z,216
2018-06-05T07:50:22.949Z,216
2018-06-05T07:51:28.095Z,216
2018-06-05T07:52:33.530Z,247
2018-06-05T07:53:38.415Z,247
2018-06-05T07:54:44.161Z,232
2018-06-05T07:55:49.315Z,232
2018-06-05T07:56:54.459Z,247
2018-06-05T07:57:59.728Z,232
2018-06-05T07:59:04.875Z,216
2018-06-05T08:00:10.309Z,247
2018-06-05T08:01:15.806Z,247
2018-06-05T08:02:21.237Z,232
2018-06-05T08:03:26.795Z,247
2018-06-05T08:04:31.944Z,247
2018-06-05T08:05:37.387Z,232
2018-06-05T08:06:42.606Z,232
2018-06-05T08:07:47.752Z,232
2018-06-05T08:08:52.834Z,247
2018-06-05T08:09:58.315Z,247
2018-06-05T08:11:02.643Z,216
2018-06-05T08:12:07.499Z,247
2018-06-05T08:13:13.181Z,247
2018-06-05T08:14:18.351Z,247
2018-06-05T08:15:23.508Z,247
2018-06-05T08:16:28.828Z,262
2018-06-05T08:17:34.262Z,241
2018-06-05T08:18:38.842Z,241
2018-06-05T08:19:43.989Z,241
2018-06-05T08:20:48.858Z,241
2018-06-05T08:21:54.719Z,247
2018-06-05T08:23:00.153Z,241
2018-06-05T08:24:05.308Z,241
2018-06-05T08:25:10.423Z,257
2018-06-05T08:26:15.862Z,247
2018-06-05T08:27:20.941Z,241
2018-06-05T08:28:26.631Z,232
2018-06-05T08:29:31.500Z,257
2018-06-05T08:30:37.195Z,257
2018-06-05T08:31:42.356Z,272
2018-06-05T08:32:47.516Z,272
2018-06-05T08:33:53.065Z,257
2018-06-05T08:34:57.941Z,272
2018-06-05T08:36:02.802Z,287
2018-06-05T08:37:08.225Z,241
2018-06-05T08:38:13.796Z,287
2018-06-05T08:39:19.255Z,257
2018-06-05T08:40:24.938Z,257
2018-06-05T08:41:29.536Z,257
2018-06-05T08:42:34.930Z,257
2018-06-05T08:43:39.533Z,241
2018-06-05T08:44:44.719Z,257
2018-06-05T08:45:49.955Z,241
2018-06-05T08:46:55.113Z,257
2018-06-05T08:47:59.998Z,257
2018-06-05T08:49:05.247Z,272
2018-06-05T08:50:10.754Z,272
2018-06-05T08:51:15.916Z,272
2018-06-05T08:52:20.659Z,272
2018-06-05T08:53:26.089Z,272
2018-06-05T08:54:31.768Z,272
2018-06-05T08:55:36.924Z,272
2018-06-05T08:56:41.505Z,272
2018-06-05T08:57:47.012Z,272
2018-06-05T08:58:52.167Z,287
2018-06-05T08:59:57.209Z,247
2018-06-05T09:01:02.184Z,272
2018-06-05T09:02:07.049Z,247
2018-06-05T09:03:11.645Z,272
2018-06-05T09:04:16.771Z,247
2018-06-05T09:05:22.534Z,272
2018-06-05T09:06:27.809Z,241
2018-06-05T09:07:33.665Z,257
2018-06-05T09:08:38.820Z,216
2018-06-05T09:09:44.619Z,272
2018-06-05T09:10:49.979Z,241
2018-06-05T09:11:55.402Z,241
2018-06-05T09:12:59.990Z,225
2018-06-05T09:14:05.157Z,225
2018-06-05T09:15:10.305Z,225
2018-06-05T09:16:15.340Z,257
2018-06-05T09:17:20.771Z,241
2018-06-05T09:18:40.935Z,272
2018-06-05T09:19:45.800Z,272
2018-06-05T09:20:51.232Z,272
2018-06-05T09:21:56.910Z,232
2018-06-05T09:23:02.103Z,272
2018-06-05T09:24:06.906Z,272
2018-06-05T09:25:12.408Z,266
2018-06-05T09:26:17.269Z,216
2018-06-05T09:27:22.420Z,257
2018-06-05T09:28:27.944Z,266
2018-06-05T09:29:33.099Z,257
2018-06-05T09:30:39.308Z,257
2018-06-05T09:31:44.186Z,257
2018-06-05T09:32:49.618Z,257
2018-06-05T09:33:55.024Z,272
2018-06-05T09:35:00.457Z,266
2018-06-05T09:36:05.906Z,257
2018-06-05T09:37:11.694Z,272
2018-06-05T09:38:17.045Z,241
2018-06-05T09:39:21.628Z,257
2018-06-05T09:40:26.787Z,282
2018-06-05T09:41:31.562Z,282
2018-06-05T09:42:37.349Z,266
2018-06-05T09:43:43.008Z,249
2018-06-05T09:44:48.165Z,266
2018-06-05T09:45:53.880Z,282
2018-06-05T09:46:59.291Z,297
2018-06-05T09:48:04.751Z,297
2018-06-05T09:49:10.585Z,282
2018-06-05T09:50:15.949Z,297
2018-06-05T09:51:21.124Z,297
2018-06-05T09:52:27.089Z,297
2018-06-05T09:53:32.586Z,297
2018-06-05T09:54:37.988Z,297
2018-06-05T09:55:42.886Z,282
2018-06-05T09:56:47.787Z,312
2018-06-05T09:57:52.871Z,297
2018-06-05T09:58:58.017Z,297
2018-06-05T10:00:02.879Z,312
2018-06-05T10:01:07.801Z,282
2018-06-05T10:02:13.234Z,266
2018-06-05T10:03:18.397Z,312
2018-06-05T10:04:23.807Z,312
2018-06-05T10:05:29.438Z,289
2018-06-05T10:06:34.859Z,289
2018-06-05T10:07:39.722Z,273
2018-06-05T10:08:44.867Z,273
2018-06-05T10:09:50.279Z,185
2018-06-05T10:10:55.445Z,297
2018-06-05T10:12:00.879Z,297
2018-06-05T10:13:05.812Z,297
2018-06-05T10:14:11.011Z,289
2018-06-05T10:15:16.300Z,322
2018-06-05T10:16:22.233Z,297
2018-06-05T10:17:27.408Z,282
2018-06-05T10:18:33.200Z,289
2018-06-05T10:19:38.528Z,266
2018-06-05T10:20:43.873Z,306
2018-06-05T10:21:48.993Z,306
2018-06-05T10:22:54.429Z,306
2018-06-05T10:23:59.874Z,306
2018-06-05T10:25:04.711Z,289
2018-06-05T10:26:09.869Z,289
2018-06-05T10:27:15.026Z,297
2018-06-05T10:28:20.814Z,297
2018-06-05T10:29:25.959Z,297
2018-06-05T10:30:31.008Z,306
2018-06-05T10:31:36.477Z,297
2018-06-05T10:32:41.626Z,312
2018-06-05T10:33:47.199Z,306
2018-06-05T10:34:52.362Z,282
2018-06-05T10:35:57.618Z,297
2018-06-05T10:37:03.023Z,289
2018-06-05T10:38:08.032Z,306
2018-06-05T10:39:13.186Z,322
2018-06-05T10:40:18.829Z,306
2018-06-05T10:41:24.308Z,289
2018-06-05T10:42:29.973Z,273
2018-06-05T10:43:34.842Z,273
2018-06-05T10:44:39.450Z,322
2018-06-05T10:45:45.142Z,322
2018-06-05T10:46:50.375Z,322
2018-06-05T10:47:55.827Z,322
2018-06-05T10:49:00.824Z,322
2018-06-05T10:50:06.002Z,337
2018-06-05T10:51:10.597Z,337
2018-06-05T10:52:16.288Z,322
2018-06-05T10:53:21.736Z,322
2018-06-05T10:54:26.658Z,322
2018-06-05T10:55:31.747Z,337
2018-06-05T10:56:37.185Z,337
2018-06-05T10:57:42.523Z,337
2018-06-05T10:58:47.956Z,322
2018-06-05T10:59:53.142Z,313
2018-06-05T11:00:58.823Z,313
2018-06-05T11:02:04.271Z,313
2018-06-05T11:03:09.730Z,313
2018-06-05T11:04:14.848Z,330
2018-06-05T11:05:20.087Z,330
2018-06-05T11:06:40.428Z,330
2018-06-05T11:07:45.865Z,346
2018-06-05T11:08:51.312Z,346
2018-06-05T11:09:57.095Z,330
2018-06-05T11:11:02.275Z,330
2018-06-05T11:12:06.758Z,330
2018-06-05T11:13:11.900Z,330
2018-06-05T11:14:16.785Z,330
2018-06-05T11:15:22.093Z,313
2018-06-05T11:16:27.651Z,330
2018-06-05T11:17:32.815Z,313
2018-06-05T11:18:37.966Z,313
2018-06-05T11:19:43.412Z,346
2018-06-05T11:20:48.842Z,385
2018-06-05T11:21:54.350Z,441
2018-06-05T11:22:59.806Z,313
2018-06-05T11:24:04.684Z,362
2018-06-05T11:25:10.701Z,353
2018-06-05T11:26:15.582Z,330
2018-06-05T11:27:21.037Z,330
2018-06-05T11:28:27.158Z,322
2018-06-05T11:29:32.778Z,306
2018-06-05T11:30:38.336Z,322
2018-06-05T11:31:43.814Z,306
2018-06-05T11:32:48.674Z,306
2018-06-05T11:33:54.070Z,289
2018-06-05T11:34:58.648Z,289
2018-06-05T11:36:03.812Z,322
2018-06-05T11:37:09.841Z,322
2018-06-05T11:38:15.276Z,306
2018-06-05T11:39:20.104Z,322
2018-06-05T11:40:25.696Z,322
2018-06-05T11:41:31.129Z,312
2018-06-05T11:42:35.987Z,312
2018-06-05T11:43:41.426Z,312
2018-06-05T11:44:47.123Z,401
2018-06-05T11:45:52.702Z,418
2018-06-05T11:46:58.015Z,377
2018-06-05T11:48:03.042Z,361
2018-06-05T11:49:08.550Z,377
2018-06-05T11:50:13.904Z,401
2018-06-05T11:51:19.336Z,401
2018-06-05T11:52:24.744Z,401
2018-06-05T11:53:30.173Z,401
2018-06-05T11:54:35.580Z,394
2018-06-05T11:55:40.750Z,368
2018-06-05T11:56:45.913Z,385
2018-06-05T11:57:51.188Z,385
2018-06-05T11:58:56.062Z,410
2018-06-05T12:00:00.914Z,410
2018-06-05T12:01:06.615Z,394
2018-06-05T12:02:11.929Z,377
2018-06-05T12:03:17.365Z,394
2018-06-05T12:04:23.247Z,377
2018-06-05T12:05:28.124Z,361
2018-06-05T12:06:33.255Z,386
2018-06-05T12:07:38.421Z,377
2018-06-05T12:08:43.573Z,361
2018-06-05T12:09:48.993Z,361
2018-06-05T12:10:54.441Z,361
2018-06-05T12:11:59.881Z,361
2018-06-05T12:13:05.610Z,353
2018-06-05T12:14:10.505Z,370
2018-06-05T12:15:15.375Z,377
2018-06-05T12:16:20.517Z,361
2018-06-05T12:17:25.892Z,361
2018-06-05T12:18:31.851Z,361
2018-06-05T12:19:37.000Z,361
2018-06-05T12:20:42.351Z,370
2018-06-05T12:21:48.055Z,370
2018-06-05T12:22:52.935Z,353
2018-06-05T12:23:58.367Z,370
2018-06-05T12:25:02.855Z,353
2018-06-05T12:26:07.927Z,353
2018-06-05T12:27:12.807Z,337
2018-06-05T12:28:18.201Z,370
2018-06-05T12:29:23.079Z,353
2018-06-05T12:30:28.913Z,370
2018-06-05T12:31:34.547Z,353
2018-06-05T12:32:39.718Z,370
2018-06-05T12:33:45.535Z,361
2018-06-05T12:34:50.391Z,361
2018-06-05T12:35:55.825Z,377
2018-06-05T12:37:01.096Z,361
2018-06-05T12:38:06.448Z,330
2018-06-05T12:39:11.601Z,368
2018-06-05T12:40:16.649Z,368
2018-06-05T12:41:21.537Z,368
2018-06-05T12:42:27.317Z,385
2018-06-05T12:43:32.679Z,353
2018-06-05T12:44:37.876Z,337
2018-06-05T12:45:42.994Z,337
2018-06-05T12:46:48.153Z,352
2018-06-05T12:47:53.595Z,337
2018-06-05T12:48:59.006Z,322
2018-06-05T12:50:03.619Z,344
2018-06-05T12:51:08.508Z,306
2018-06-05T12:52:14.194Z,306
2018-06-05T12:53:19.351Z,312
2018-06-05T12:54:24.496Z,322
2018-06-05T12:55:29.384Z,330
2018-06-05T12:56:34.217Z,330
2018-06-05T12:57:39.902Z,337
2018-06-05T12:58:45.218Z,322
2018-06-05T12:59:50.093Z,306
2018-06-05T13:00:55.248Z,337
2018-06-05T13:02:00.672Z,344
2018-06-05T13:03:05.543Z,322
2018-06-05T13:04:10.715Z,312
2018-06-05T13:05:16.095Z,337
2018-06-05T13:06:21.576Z,370
2018-06-05T13:07:27.142Z,346
2018-06-05T13:08:32.027Z,312
2018-06-05T13:09:37.441Z,353
2018-06-05T13:10:42.604Z,337
2018-06-05T13:11:48.152Z,282
2018-06-05T13:12:53.959Z,302
2018-06-05T13:13:59.125Z,312
2018-06-05T13:15:04.559Z,330
2018-06-05T13:16:09.717Z,337
2018-06-05T13:17:14.873Z,313
2018-06-05T13:18:19.770Z,346
2018-06-05T13:19:25.207Z,346
2018-06-05T13:20:30.065Z,362
2018-06-05T13:21:35.848Z,337
2018-06-05T13:22:41.535Z,346
2018-06-05T13:23:47.033Z,330
2018-06-05T13:24:52.764Z,362
2018-06-05T13:25:58.210Z,346
2018-06-05T13:27:02.523Z,362
2018-06-05T13:28:08.286Z,346
2018-06-05T13:29:12.875Z,346
2018-06-05T13:30:17.761Z,353
2018-06-05T13:31:23.446Z,346
2018-06-05T13:32:29.194Z,346
2018-06-05T13:33:34.790Z,362
2018-06-05T13:34:40.279Z,337
2018-06-05T13:35:45.151Z,353
2018-06-05T13:36:50.625Z,353
2018-06-05T13:37:56.068Z,337
2018-06-05T13:39:01.701Z,330
2018-06-05T13:40:06.283Z,297
2018-06-05T13:41:10.863Z,317
2018-06-05T13:42:16.315Z,362
2018-06-05T13:43:21.712Z,322
2018-06-05T13:44:26.977Z,346
2018-06-05T13:45:33.170Z,353
2018-06-05T13:46:38.365Z,346
2018-06-05T13:47:43.521Z,362
2018-06-05T13:48:48.662Z,330
2018-06-05T13:49:54.107Z,346
2018-06-05T13:50:59.255Z,330
2018-06-05T13:52:04.483Z,346
2018-06-05T13:53:09.915Z,346
2018-06-05T13:54:15.264Z,346
2018-06-05T13:55:21.063Z,346
2018-06-05T13:56:26.499Z,346
2018-06-05T13:57:32.005Z,346
2018-06-05T13:58:37.439Z,346
2018-06-05T13:59:42.016Z,330
2018-06-05T14:00:47.704Z,346
2018-06-05T14:01:53.144Z,346
2018-06-05T14:02:58.579Z,330
2018-06-05T14:04:03.974Z,330
2018-06-05T14:05:09.140Z,330
2018-06-05T14:06:14.295Z,330
2018-06-05T14:07:20.037Z,330
2018-06-05T14:08:25.208Z,346
2018-06-05T14:09:31.140Z,346
2018-06-05T14:10:36.578Z,346
2018-06-05T14:11:41.467Z,346
2018-06-05T14:12:46.874Z,346
2018-06-05T14:13:52.311Z,362
2018-06-05T14:14:57.176Z,362
2018-06-05T14:16:02.350Z,346
2018-06-05T14:17:07.508Z,346
2018-06-05T14:18:12.957Z,346
2018-06-05T14:19:18.137Z,346
2018-06-05T14:20:23.302Z,362
2018-06-05T14:21:29.185Z,362
2018-06-05T14:22:34.631Z,346
2018-06-05T14:23:40.064Z,346
2018-06-05T14:24:45.747Z,346
2018-06-05T14:25:51.182Z,346
2018-06-05T14:26:56.817Z,346
2018-06-05T14:28:01.757Z,346
2018-06-05T14:29:05.785Z,330
2018-06-05T14:30:11.218Z,346
2018-06-05T14:31:16.368Z,346
2018-06-05T14:32:21.257Z,346
2018-06-05T14:33:41.136Z,346
2018-06-05T14:34:45.433Z,346
2018-06-05T14:35:50.012Z,337
2018-06-05T14:36:55.160Z,346
2018-06-05T14:38:00.323Z,362
2018-06-05T14:39:05.476Z,362
2018-06-05T14:40:11.169Z,362
2018-06-05T14:41:16.599Z,362
2018-06-05T14:42:21.205Z,362
2018-06-05T14:43:26.992Z,346
2018-06-05T14:44:32.137Z,377
2018-06-05T14:45:37.259Z,362
2018-06-05T14:46:42.692Z,362
2018-06-05T14:47:47.550Z,346
2018-06-05T14:48:52.825Z,346
2018-06-05T14:49:58.013Z,346
2018-06-05T14:51:02.596Z,362
2018-06-05T14:52:07.858Z,362
2018-06-05T14:53:13.310Z,362
2018-06-05T14:54:18.817Z,377
2018-06-05T14:55:23.935Z,362
2018-06-05T14:56:29.107Z,362
2018-06-05T14:57:34.926Z,370
2018-06-05T14:58:40.083Z,353
2018-06-05T14:59:44.952Z,386
2018-06-05T15:00:50.763Z,370
2018-06-05T15:01:55.933Z,386
2018-06-05T15:03:00.566Z,402
2018-06-05T15:04:05.246Z,386
2018-06-05T15:05:10.420Z,386
2018-06-05T15:06:15.019Z,402
2018-06-05T15:07:20.276Z,370
2018-06-05T15:08:25.144Z,370
2018-06-05T15:09:30.547Z,386
2018-06-05T15:10:35.990Z,386
2018-06-05T15:11:41.146Z,386
2018-06-05T15:12:46.934Z,386
2018-06-05T15:13:52.376Z,386
2018-06-05T15:14:57.836Z,386
2018-06-05T15:16:02.777Z,386
2018-06-05T15:17:07.925Z,394
2018-06-05T15:18:13.078Z,402
2018-06-05T15:19:19.072Z,402
2018-06-05T15:20:24.522Z,402
2018-06-05T15:21:30.020Z,394
2018-06-05T15:22:35.454Z,394
2018-06-05T15:23:40.886Z,394
2018-06-05T15:24:46.412Z,394
2018-06-05T15:25:51.564Z,410
2018-06-05T15:26:57.005Z,394
2018-06-05T15:28:02.233Z,410
2018-06-05T15:29:06.548Z,427